KGWO/GWO METAR and TAF weather

Enter ICAO airport designator
Station Type Date Time Source
KGWO METAR 2019/12/06 23:53 UTC NOAA

KGWO 062353Z AUTO 01006KT 10SM OVC017 14/11 A3017 RMK AO2 SLP217 T01390106 10144 20139 53020


Station Type Date Time Source
KGWO Decoded METAR 2019/12/06 23:53 UTC NOAA

GREENWOOD-LEFLORE AIRPORT, MS, United States (KGWO) 33-30N 090-05W 44M
Dec 06, 2019 - 06:53 PM EST / 2019.12.06 2353 UTC
Wind: from the N (010 degrees) at 7 MPH (6 KT):0
Visibility: 10 mile(s):0
Sky conditions: overcast
Temperature: 57.0 F (13.9 C)
Dew Point: 51.1 F (10.6 C)
Relative Humidity: 80%
Pressure (altimeter): 30.17 in. Hg (1021 hPa)
Pressure tendency: 0.06 inches (2.0 hPa) higher than three hours ago
ob: KGWO 062353Z AUTO 01006KT 10SM OVC017 14/11 A3017 RMK AO2 SLP217 T01390106 10144 20139 53020
cycle: 0

Station Type Date Time Source
KGWO TAF 2019/12/06 18:48 UTC NOAA

TAF KGWO 061744Z 0618/0718 00000KT P6SM VCTS BKN015CB
FM070000 01007KT P6SM OVC035
FM070600 01007KT P6SM OVC013
FM071300 03005KT P6SM OVC007

Example: see airport list